Time;durP1;ratioP1;P1;durP2;ratioP2;P2;SDS_P1;SDS_P2;PMS_P1;PMS_P2;Temp;Humidity;BMP_temperature;BMP_pressure;BME280_temperature;BME280_humidity;BME280_pressure;Samples;Min_cycle;Max_cycle;Signal;HPM_P1;HPM_P2
2021/01/17 00:04:06;;;;;;;1999.90;999.90;;;;;;;1.97;56.19;101469.00;15746324;28;20056;-63
2021/01/17 00:11:38;;;;;;;1999.90;999.90;;;;;;;2.20;56.48;101467.91;15745786;28;20131;-61
2021/01/17 00:19:10;;;;;;;1999.90;999.90;;;;;;;2.12;55.85;101465.63;15727727;28;20033;-62
2021/01/17 00:26:42;;;;;;;1999.90;999.90;;;;;;;1.93;56.40;101450.53;15743635;28;20106;-61
2021/01/17 00:34:14;;;;;;;1999.90;999.90;;;;;;;1.78;57.08;101445.69;15726120;28;20425;-62
2021/01/17 00:41:46;;;;;;;1999.90;999.90;;;;;;;1.68;56.63;101449.13;15743709;28;20577;-61
2021/01/17 00:49:18;;;;;;;1999.90;999.90;;;;;;;1.88;56.58;101442.22;15725526;28;20131;-62
2021/01/17 00:56:50;;;;;;;1999.90;999.90;;;;;;;2.00;56.15;101426.38;15742823;28;20079;-62
2021/01/17 01:04:25;;;;;;;1999.90;999.90;;;;;;;1.86;56.33;101425.94;15707855;28;20093;-62
2021/01/17 01:11:58;;;;;;;1999.90;999.90;;;;;;;1.67;56.90;101413.63;15742503;28;20076;-61
2021/01/17 01:19:29;;;;;;;1999.90;999.90;;;;;;;1.39;57.85;101398.97;15724390;28;20033;-63
2021/01/17 01:27:02;;;;;;;1999.90;999.90;;;;;;;1.16;58.19;101396.47;15742167;28;20053;-63
2021/01/17 01:34:35;;;;;;;1999.90;999.90;;;;;;;0.90;58.82;101395.25;15723706;28;20079;-63
2021/01/17 01:42:08;;;;;;;1999.90;999.90;;;;;;;0.96;58.52;101390.69;15741004;28;20078;-62
2021/01/17 01:49:42;;;;;;;1999.90;999.90;;;;;;;0.79;59.81;101377.78;15725220;28;20049;-63
2021/01/17 01:57:15;;;;;;;1999.90;999.90;;;;;;;0.84;58.64;101355.91;15740484;28;20036;-63
2021/01/17 02:04:48;;;;;;;1999.90;999.90;;;;;;;0.63;60.37;101355.84;15722847;28;20046;-62
2021/01/17 02:12:28;;;;;;;1999.90;999.90;;;;;;;0.54;60.88;101353.53;15713411;28;20049;-62
2021/01/17 02:20:16;;;;;;;1999.90;999.90;;;;;;;0.51;59.93;101340.28;15740442;28;20044;-63
2021/01/17 02:27:49;;;;;;;1999.90;999.90;;;;;;;0.29;60.92;101351.19;15740130;28;20076;-65
2021/01/17 02:35:23;;;;;;;1999.90;999.90;;;;;;;0.22;61.27;101346.97;15721269;28;20485;-62
2021/01/17 02:42:58;;;;;;;1999.90;999.90;;;;;;;0.16;61.82;101350.69;15740539;28;20131;-63
2021/01/17 02:50:30;;;;;;;1999.90;999.90;;;;;;;0.03;61.59;101351.00;15720997;28;20040;-63
2021/01/17 02:58:04;;;;;;;1999.90;999.90;;;;;;;-0.02;61.33;101347.09;15729601;28;20044;-62
2021/01/17 03:05:37;;;;;;;1999.90;999.90;;;;;;;-0.20;62.04;101349.22;15731625;28;20041;-63
2021/01/17 03:13:10;;;;;;;1999.90;999.90;;;;;;;-0.34;62.63;101349.50;15732717;28;20045;-62
2021/01/17 03:20:42;;;;;;;1999.90;999.90;;;;;;;-0.43;62.64;101361.13;15749770;28;20560;-62
2021/01/17 03:28:15;;;;;;;1999.90;999.90;;;;;;;-0.42;63.02;101371.00;15733882;28;20090;-62
2021/01/17 03:35:47;;;;;;;1999.90;999.90;;;;;;;-0.20;62.35;101369.28;15749850;28;20040;-63
2021/01/17 03:43:19;;;;;;;1999.90;999.90;;;;;;;0.08;62.43;101354.66;15749639;28;20043;-63
2021/01/17 03:50:51;;;;;;;1999.90;999.90;;;;;;;0.07;62.45;101350.25;15748900;28;20048;-64
2021/01/17 03:58:24;;;;;;;1999.90;999.90;;;;;;;0.14;62.55;101358.34;15728746;28;20062;-62
2021/01/17 04:05:56;;;;;;;1999.90;999.90;;;;;;;0.11;62.74;101361.59;15746903;28;20480;-61
2021/01/17 04:13:29;;;;;;;1999.90;999.90;;;;;;;0.09;63.84;101363.72;15747490;28;20378;-64
2021/01/17 04:21:01;;;;;;;1999.90;999.90;;;;;;;0.37;63.04;101358.19;15743124;28;20125;-61
2021/01/17 04:28:34;;;;;;;1999.90;999.90;;;;;;;0.52;61.98;101363.94;15742327;28;20047;-63
2021/01/17 04:36:08;;;;;;;1999.90;999.90;;;;;;;0.27;62.41;101349.78;15744710;28;20486;-63
2021/01/17 04:43:51;;;;;;;1999.90;999.90;;;;;;;0.35;62.72;101363.09;15744189;28;20305;-62
2021/01/17 04:51:26;;;;;;;1999.90;999.90;;;;;;;0.43;63.22;101359.09;15741543;28;20047;-63
2021/01/17 04:59:12;;;;;;;1999.90;999.90;;;;;;;0.52;63.07;101360.31;15743991;28;20086;-62
2021/01/17 05:06:47;;;;;;;1999.90;999.90;;;;;;;0.24;64.10;101353.84;15724036;28;20526;-61
2021/01/17 05:14:36;;;;;;;1999.90;999.90;;;;;;;0.67;62.76;101363.31;15760090;28;20037;-61
2021/01/17 05:22:08;;;;;;;1999.90;999.90;;;;;;;0.62;62.94;101384.38;15743338;28;20135;-60
2021/01/17 05:29:42;;;;;;;1999.90;999.90;;;;;;;0.80;62.40;101359.38;15744440;28;20055;-62
2021/01/17 05:37:15;;;;;;;1999.90;999.90;;;;;;;0.45;63.52;101393.47;15742309;28;20413;-62
2021/01/17 05:44:48;;;;;;;1999.90;999.90;;;;;;;0.50;62.59;101392.69;15725237;28;20075;-62
2021/01/17 05:52:20;;;;;;;1999.90;999.90;;;;;;;0.75;62.15;101400.53;15741276;28;20040;-62
2021/01/17 05:59:53;;;;;;;1999.90;999.90;;;;;;;0.92;61.85;101389.50;15740029;28;20090;-61
2021/01/17 06:07:26;;;;;;;1999.90;999.90;;;;;;;0.90;61.85;101394.44;15740732;28;20048;-62
2021/01/17 06:15:04;;;;;;;;;;;;;;;1.24;61.72;101396.00;15723308;28;20364;-62
2021/01/17 06:22:36;;;;;;;1999.90;999.90;;;;;;;1.17;62.18;101397.31;15740705;28;19974;-62
2021/01/17 06:30:18;;;;;;;1999.90;999.90;;;;;;;1.06;62.30;101401.81;15726690;28;20493;-62
2021/01/17 06:37:51;;;;;;;1999.90;999.90;;;;;;;0.96;62.57;101405.25;15715657;28;20045;-63
2021/01/17 06:45:24;;;;;;;1999.90;999.90;;;;;;;1.17;62.97;101413.78;15732569;28;20575;-60
2021/01/17 06:52:57;;;;;;;1999.90;999.90;;;;;;;0.81;63.37;101427.81;15734040;28;20036;-60
2021/01/17 07:00:33;;;;;;;1999.90;999.90;;;;;;;1.31;62.34;101423.31;15717675;28;20520;-60
2021/01/17 07:08:36;;;;;;;1999.90;999.90;;;;;;;1.26;62.30;101426.03;15714820;28;20048;-61
2021/01/17 07:16:28;;;;;;;1999.90;999.90;;;;;;;1.24;62.57;101433.66;15749450;28;20551;-61
2021/01/17 07:24:06;;;;;;;1999.90;999.90;;;;;;;1.24;62.60;101441.91;15752239;28;20044;-61
2021/01/17 07:31:39;;;;;;;1999.90;999.90;;;;;;;1.14;62.76;101445.34;15731722;28;20382;-63
2021/01/17 07:39:16;;;;;;;1999.90;999.90;;;;;;;1.07;63.25;101451.03;15749450;28;20113;-61
2021/01/17 07:46:48;;;;;;;1999.90;999.90;;;;;;;0.89;64.25;101453.22;15748687;28;20135;-61
2021/01/17 07:54:24;;;;;;;1999.90;999.90;;;;;;;0.80;63.45;101447.31;15747914;28;20425;-60
2021/01/17 08:01:57;;;;;;;1999.90;999.90;;;;;;;0.61;65.13;101448.63;15728766;28;20037;-62
2021/01/17 08:09:49;;;;;;;1999.90;999.90;;;;;;;0.97;64.06;101456.38;15729259;28;20079;-62
2021/01/17 08:17:22;;;;;;;1999.90;999.90;;;;;;;1.09;64.09;101459.03;15728243;28;20044;-62
2021/01/17 08:24:55;;;;;;;1999.90;999.90;;;;;;;1.12;63.38;101459.34;15747436;28;20101;-61
2021/01/17 08:32:31;;;;;;;1999.90;999.90;;;;;;;1.59;62.30;101464.44;15745688;28;20033;-61
2021/01/17 08:40:05;;;;;;;1999.90;999.90;;;;;;;1.78;61.63;101464.94;15748374;28;20048;-60
2021/01/17 08:47:38;;;;;;;1999.90;999.90;;;;;;;1.43;62.06;101479.88;15709756;28;20076;-61
2021/01/17 08:55:11;;;;;;;1999.90;999.90;;;;;;;1.97;61.41;101465.44;15732099;28;20033;-63
2021/01/17 09:02:44;;;;;;;1999.90;999.90;;;;;;;2.24;60.59;101481.97;15733028;28;20044;-62
2021/01/17 09:10:17;;;;;;;1999.90;999.90;;;;;;;2.18;60.51;101494.03;15748543;28;20059;-61
2021/01/17 09:18:00;;;;;;;1999.90;999.90;;;;;;;2.75;59.08;101499.03;15747616;28;20075;-62
2021/01/17 09:25:32;;;;;;;;;;;;;;;2.56;58.21;101517.84;15747382;28;20039;-62
2021/01/17 09:33:07;;;;;;;1999.90;999.90;;;;;;;2.95;57.84;101518.50;15746818;28;19969;-62
2021/01/17 09:40:39;;;;;;;1999.90;999.90;;;;;;;3.02;57.63;101516.38;15747171;28;20064;-63
2021/01/17 09:48:18;;;;;;;1999.90;999.90;;;;;;;2.81;57.80;101518.13;15730013;28;20040;-62
2021/01/17 09:55:50;;;;;;;1999.90;999.90;;;;;;;2.76;57.88;101537.34;15747988;28;20052;-61
2021/01/17 10:03:28;;;;;;;1999.90;999.90;;;;;;;3.03;57.13;101540.09;15747015;28;20040;-62
2021/01/17 10:11:00;;;;;;;1999.90;999.90;;;;;;;2.97;56.90;101545.81;15747112;28;20047;-61
2021/01/17 10:18:33;;;;;;;1999.90;999.90;;;;;;;3.40;57.02;101550.28;15779331;22;20067;-57
2021/01/17 10:26:05;;;;;;;1999.90;999.90;;;;;;;3.01;57.25;101555.19;15781747;28;20404;-56
2021/01/17 10:33:38;;;;;;;1999.90;999.90;;;;;;;3.05;57.42;101559.13;15723075;28;20127;-56
2021/01/17 10:41:12;;;;;;;1999.90;999.90;;;;;;;3.13;57.15;101570.50;15736395;28;20055;-55
2021/01/17 10:48:48;;;;;;;1999.90;999.90;;;;;;;2.92;58.28;101573.31;15717953;28;20048;-56
2021/01/17 10:56:21;;;;;;;1999.90;999.90;;;;;;;3.22;56.24;101564.47;15734655;28;20127;-53
2021/01/17 11:03:57;;;;;;;1999.90;999.90;;;;;;;3.61;55.98;101567.81;15734786;28;20053;-57
2021/01/17 11:11:30;;;;;;;1999.90;999.90;;;;;;;3.78;53.93;101573.19;15716103;28;20147;-57
2021/01/17 11:19:03;;;;;;;;;;;;;;;4.12;53.61;101576.41;15725377;28;20065;-57
2021/01/17 11:26:36;;;;;;;1999.90;999.90;;;;;;;3.81;54.29;101575.41;15726485;28;20047;-57
2021/01/17 11:34:14;;;;;;;1999.90;999.90;;;;;;;3.80;54.13;101571.81;15744744;28;20131;-55
2021/01/17 11:41:45;;;;;;;1999.90;999.90;;;;;;;4.09;53.21;101560.38;15710145;28;20056;-53
2021/01/17 11:49:28;;;;;;;1999.90;999.90;;;;;;;3.53;55.10;101571.91;15745985;28;20383;-56
2021/01/17 11:57:04;;;;;;;1999.90;999.90;;;;;;;3.94;53.60;101572.97;15737040;28;20045;-55
2021/01/17 12:04:40;;;;;;;1999.90;999.90;;;;;;;4.30;51.88;101568.47;15724689;28;20455;-56
2021/01/17 12:12:14;;;;;;;1999.90;999.90;;;;;;;4.11;52.93;101560.94;15743927;28;20037;-56
2021/01/17 12:19:47;;;;;;;1999.90;999.90;;;;;;;4.64;52.98;101562.50;15725475;28;20048;-55
2021/01/17 12:27:18;;;;;;;1999.90;999.90;;;;;;;3.86;53.34;101568.00;15724940;28;20120;-55
2021/01/17 12:34:51;;;;;;;1999.90;999.90;;;;;;;3.75;54.78;101575.38;15724384;28;20083;-52
2021/01/17 12:42:22;;;;;;;1999.90;999.90;;;;;;;4.24;53.87;101561.25;15740482;28;20044;-54
2021/01/17 12:49:55;;;;;;;1999.90;999.90;;;;;;;4.58;52.94;101566.34;15723312;28;20047;-53
2021/01/17 12:57:29;;;;;;;1999.90;999.90;;;;;;;4.74;53.30;101568.03;15740940;28;20048;-55
2021/01/17 13:05:03;;;;;;;1999.90;999.90;;;;;;;3.76;55.44;101568.75;15739481;28;20060;-58
2021/01/17 13:12:34;;;;;;;1999.90;999.90;;;;;;;4.26;53.23;101569.25;15739039;28;20055;-55
2021/01/17 13:20:09;;;;;;;1999.90;999.90;;;;;;;4.35;53.89;101567.66;15737823;28;20048;-52
2021/01/17 13:27:41;;;;;;;1999.90;999.90;;;;;;;4.44;52.48;101568.78;15737957;28;20044;-58
2021/01/17 13:35:14;;;;;;;1999.90;999.90;;;;;;;3.94;54.24;101566.63;15720059;28;20044;-57
2021/01/17 13:42:46;;;;;;;1999.90;999.90;;;;;;;4.35;53.64;101565.72;15718175;28;20086;-52
2021/01/17 13:50:20;;;;;;;1999.90;999.90;;;;;;;4.36;53.93;101572.06;15718868;28;20056;-57
2021/01/17 13:57:51;;;;;;;1999.90;999.90;;;;;;;3.50;55.89;101590.91;15736682;28;20147;-56
2021/01/17 14:05:24;;;;;;;1999.90;999.90;;;;;;;3.76;55.34;101585.31;15736578;28;20052;-56
2021/01/17 14:12:56;;;;;;;1999.90;999.90;;;;;;;2.95;57.73;101587.44;15736252;28;20061;-56
2021/01/17 14:20:28;;;;;;;1999.90;999.90;;;;;;;2.56;59.18;101595.00;15736127;28;20403;-56
2021/01/17 14:28:00;;;;;;;1999.90;999.90;;;;;;;2.96;58.09;101599.28;15741640;28;20083;-58
2021/01/17 14:35:32;;;;;;;1999.90;999.90;;;;;;;2.83;58.76;101606.88;15744644;28;20216;-57
2021/01/17 14:43:04;;;;;;;1999.90;999.90;;;;;;;3.06;57.90;101607.66;15741390;28;20044;-52
2021/01/17 14:50:37;;;;;;;1999.90;999.90;;;;;;;2.72;58.49;101609.81;15740626;28;20087;-60
2021/01/17 14:58:09;;;;;;;1999.90;999.90;;;;;;;2.58;59.56;101618.44;15746653;28;20072;-60
2021/01/17 15:05:41;;;;;;;1999.90;999.90;;;;;;;2.25;60.09;101615.84;15746388;28;20473;-57
2021/01/17 15:13:13;;;;;;;1999.90;999.90;;;;;;;2.42;60.28;101633.16;15746370;28;20048;-56
2021/01/17 15:20:46;;;;;;;1999.90;999.90;;;;;;;2.01;61.88;101629.84;15745672;28;20045;-58
2021/01/17 15:28:18;;;;;;;1999.90;999.90;;;;;;;2.28;61.93;101634.59;15728065;28;20053;-58
2021/01/17 15:35:50;;;;;;;1999.90;999.90;;;;;;;2.49;61.29;101633.75;15744631;28;20032;-59
2021/01/17 15:43:22;;;;;;;1999.90;999.90;;;;;;;2.37;61.54;101643.25;15743790;28;20421;-56
2021/01/17 15:50:55;;;;;;;1999.90;999.90;;;;;;;2.36;61.72;101655.38;15725297;28;20044;-57
2021/01/17 15:58:26;;;;;;;1999.90;999.90;;;;;;;2.30;61.84;101663.56;15726229;28;20044;-59
2021/01/17 16:06:02;;;;;;;1999.90;999.90;;;;;;;2.18;62.52;101671.09;15724738;28;20041;-56
2021/01/17 16:13:33;;;;;;;1999.90;999.90;;;;;;;1.95;62.71;101674.91;15742784;28;20049;-56
2021/01/17 16:21:06;;;;;;;1999.90;999.90;;;;;;;2.07;62.37;101694.06;15723932;28;20045;-57
2021/01/17 16:28:37;;;;;;;1999.90;999.90;;;;;;;1.91;62.29;101689.44;15739575;28;20461;-56
2021/01/17 16:36:10;;;;;;;1999.90;999.90;;;;;;;1.81;62.23;101687.34;15739417;28;20043;-60
2021/01/17 16:43:42;;;;;;;1999.90;999.90;;;;;;;1.00;64.26;101703.25;15738667;28;20072;-57
2021/01/17 16:51:15;;;;;;;1999.90;999.90;;;;;;;0.78;65.48;101707.75;15738400;28;20125;-59
2021/01/17 16:58:46;;;;;;;1999.90;999.90;;;;;;;0.64;64.96;101714.63;15703504;28;20045;-59
2021/01/17 17:06:25;;;;;;;1999.90;999.90;;;;;;;0.60;66.08;101719.75;15719295;28;20181;-58
2021/01/17 17:13:57;;;;;;;1999.90;999.90;;;;;;;0.66;66.50;101716.03;15737177;28;20434;-60
2021/01/17 17:21:31;;;;;;;1999.90;999.90;;;;;;;0.60;67.01;101732.63;15718037;28;20412;-58
2021/01/17 17:29:04;;;;;;;1999.90;999.90;;;;;;;0.49;66.55;101740.66;15736740;28;20415;-59
2021/01/17 17:36:37;;;;;;;1999.90;999.90;;;;;;;0.47;65.69;101740.06;15717998;28;20135;-55
2021/01/17 17:44:10;;;;;;;1999.90;999.90;;;;;;;0.51;65.71;101743.16;15736860;28;20052;-60
2021/01/17 17:51:48;;;;;;;1999.90;999.90;;;;;;;0.77;66.17;101745.38;15735755;28;20063;-61
2021/01/17 17:59:20;;;;;;;1999.90;999.90;;;;;;;0.77;65.70;101755.53;15735254;28;20127;-60
2021/01/17 18:06:53;;;;;;;1999.90;999.90;;;;;;;0.55;65.66;101758.09;15716631;28;20127;-59
2021/01/17 18:14:25;;;;;;;1999.90;999.90;;;;;;;0.29;66.67;101751.19;15734148;28;20068;-57
2021/01/17 18:21:58;;;;;;;1999.90;999.90;;;;;;;0.83;67.01;101760.91;15733492;28;20108;-61
2021/01/17 18:29:32;;;;;;;1999.90;999.90;;;;;;;1.00;65.70;101738.16;15743682;28;20284;-61
2021/01/17 18:37:05;;;;;;;1999.90;999.90;;;;;;;0.66;66.50;101743.50;15728411;28;20497;-62
2021/01/17 18:44:36;;;;;;;1999.90;999.90;;;;;;;0.42;67.88;101739.13;15747754;28;20040;-64
2021/01/17 18:52:09;;;;;;;1999.90;999.90;;;;;;;0.56;66.62;101740.53;15744980;28;20037;-63
2021/01/17 18:59:41;;;;;;;1999.90;999.90;;;;;;;0.34;66.49;101732.09;15745931;28;20492;-60
2021/01/17 19:07:13;;;;;;;1999.90;999.90;;;;;;;0.20;67.40;101733.41;15745395;28;20040;-61
2021/01/17 19:14:45;;;;;;;1999.90;999.90;;;;;;;0.03;66.98;101724.22;15745344;28;20231;-60
2021/01/17 19:22:20;;;;;;;1999.90;999.90;;;;;;;-0.05;67.71;101723.50;15727353;28;20448;-60
2021/01/17 19:29:52;;;;;;;1999.90;999.90;;;;;;;0.09;67.24;101728.75;15744956;28;20051;-60
2021/01/17 19:37:24;;;;;;;1999.90;999.90;;;;;;;0.07;66.93;101734.47;15741160;28;20049;-63
2021/01/17 19:44:56;;;;;;;1999.90;999.90;;;;;;;0.17;66.20;101742.13;15742793;28;20668;-62
2021/01/17 19:52:29;;;;;;;1999.90;999.90;;;;;;;0.12;66.45;101745.59;15758682;28;20063;-59
2021/01/17 20:00:02;;;;;;;1999.90;999.90;;;;;;;0.14;66.12;101753.59;15758669;28;20052;-61
2021/01/17 20:07:45;;;;;;;1999.90;999.90;;;;;;;-0.09;66.64;101749.75;15718305;28;20471;-58
2021/01/17 20:15:23;;;;;;;1999.90;999.90;;;;;;;-0.18;66.72;101744.84;15702641;28;20045;-58
2021/01/17 20:23:09;;;;;;;1999.90;999.90;;;;;;;-0.28;66.68;101748.19;15730668;28;20405;-60
2021/01/17 20:30:47;;;;;;;1999.90;999.90;;;;;;;-0.46;66.52;101746.34;15726115;28;20130;-61
2021/01/17 20:38:28;;;;;;;1999.90;999.90;;;;;;;-0.77;67.47;101739.22;15745946;28;20044;-60
2021/01/17 20:46:04;;;;;;;1999.90;999.90;;;;;;;-0.91;67.71;101740.47;15726791;28;20047;-62
2021/01/17 20:53:44;;;;;;;1999.90;999.90;;;;;;;-0.91;67.75;101755.03;15732987;28;20037;-61
2021/01/17 21:01:27;;;;;;;1999.90;999.90;;;;;;;-0.97;67.17;101739.50;15694553;28;20057;-59
2021/01/17 21:09:04;;;;;;;1999.90;999.90;;;;;;;-1.00;67.70;101739.97;15727159;28;20364;-61
2021/01/17 21:16:36;;;;;;;1999.90;999.90;;;;;;;-1.21;68.58;101727.59;15726440;28;20098;-60
2021/01/17 21:24:11;;;;;;;1999.90;999.90;;;;;;;-1.05;68.77;101733.50;15728163;28;20476;-59
2021/01/17 21:31:54;;;;;;;1999.90;999.90;;;;;;;-1.41;70.89;101727.00;15736857;28;20044;-60
2021/01/17 21:39:28;;;;;;;1999.90;999.90;;;;;;;-1.93;72.25;101726.53;15717561;28;20136;-61
2021/01/17 21:47:02;;;;;;;1999.90;999.90;;;;;;;-1.89;72.09;101716.78;15717923;28;20049;-60
2021/01/17 21:54:37;;;;;;;1999.90;999.90;;;;;;;-1.93;71.93;101718.31;15718160;28;20119;-59
2021/01/17 22:02:11;;;;;;;1999.90;999.90;;;;;;;-1.84;71.17;101708.75;15735925;28;20132;-59
2021/01/17 22:09:44;;;;;;;1999.90;999.90;;;;;;;-1.49;69.69;101702.66;15736815;28;20144;-58
2021/01/17 22:17:19;;;;;;;1999.90;999.90;;;;;;;-1.41;70.19;101718.78;15746123;22;20409;31
2021/01/17 22:24:58;;;;;;;1999.90;999.90;;;;;;;-1.18;68.48;101724.38;15655441;28;20048;-60
2021/01/17 22:32:31;;;;;;;1999.90;999.90;;;;;;;-1.25;68.67;101725.53;15628797;28;20395;-61
2021/01/17 22:40:11;;;;;;;1999.90;999.90;;;;;;;-1.66;70.83;101705.19;15595155;28;20438;-60
2021/01/17 22:47:43;;;;;;;1999.90;999.90;;;;;;;-1.40;70.10;101714.16;15596683;28;20042;-63
2021/01/17 22:55:18;;;;;;;1999.90;999.90;;;;;;;-1.06;68.99;101721.69;15614746;28;20042;-60
2021/01/17 23:02:53;;;;;;;1999.90;999.90;;;;;;;-1.31;69.77;101702.66;15607242;28;20095;-61
2021/01/17 23:10:27;;;;;;;1999.90;999.90;;;;;;;-1.50;70.61;101711.94;15608700;28;20045;-60
2021/01/17 23:18:03;;;;;;;1999.90;999.90;;;;;;;-1.19;70.18;101705.44;15620419;28;20069;-57
2021/01/17 23:25:40;;;;;;;1999.90;999.90;;;;;;;-0.94;68.75;101700.69;15625541;28;20053;-61
2021/01/17 23:33:15;;;;;;;1999.90;999.90;;;;;;;-1.03;68.19;101698.50;15618307;28;20075;-58
2021/01/17 23:40:49;;;;;;;1999.90;999.90;;;;;;;-1.16;69.81;101699.50;15618359;28;20045;-63
2021/01/17 23:48:23;;;;;;;1999.90;999.90;;;;;;;-1.18;69.30;101690.69;15618521;28;20133;-61
2021/01/17 23:56:06;;;;;;;1999.90;999.90;;;;;;;-1.38;69.50;101690.94;15605904;28;20042;-62
